sensor_id;sensor_type;location;lat;lon;timestamp;P1;durP1;ratioP1;P2;durP2;ratioP2
9150;SDS011;4610;50.006;7.490;2022-12-04T00:01:58;17.50;;;6.20;;
9150;SDS011;4610;50.006;7.490;2022-12-04T00:04:25;18.63;;;7.37;;
9150;SDS011;4610;50.006;7.490;2022-12-04T00:06:52;17.57;;;6.00;;
9150;SDS011;4610;50.006;7.490;2022-12-04T00:09:20;14.93;;;6.93;;
9150;SDS011;4610;50.006;7.490;2022-12-04T00:11:47;20.60;;;7.73;;
9150;SDS011;4610;50.006;7.490;2022-12-04T00:14:14;16.27;;;6.90;;
9150;SDS011;4610;50.006;7.490;2022-12-04T00:16:41;13.77;;;6.90;;
9150;SDS011;4610;50.006;7.490;2022-12-04T00:19:09;18.00;;;7.17;;
9150;SDS011;4610;50.006;7.490;2022-12-04T00:21:36;16.83;;;6.70;;
9150;SDS011;4610;50.006;7.490;2022-12-04T00:24:04;21.00;;;7.13;;
9150;SDS011;4610;50.006;7.490;2022-12-04T00:26:32;19.60;;;7.87;;
9150;SDS011;4610;50.006;7.490;2022-12-04T00:28:59;24.40;;;9.53;;
9150;SDS011;4610;50.006;7.490;2022-12-04T00:31:27;18.77;;;7.80;;
9150;SDS011;4610;50.006;7.490;2022-12-04T00:33:55;20.73;;;7.77;;
9150;SDS011;4610;50.006;7.490;2022-12-04T00:36:23;18.00;;;7.20;;
9150;SDS011;4610;50.006;7.490;2022-12-04T00:38:52;18.20;;;6.23;;
9150;SDS011;4610;50.006;7.490;2022-12-04T00:41:20;19.60;;;7.47;;
9150;SDS011;4610;50.006;7.490;2022-12-04T00:43:48;17.50;;;6.50;;
9150;SDS011;4610;50.006;7.490;2022-12-04T00:46:15;16.80;;;6.20;;
9150;SDS011;4610;50.006;7.490;2022-12-04T00:48:42;25.00;;;8.07;;
9150;SDS011;4610;50.006;7.490;2022-12-04T00:51:10;18.83;;;6.93;;
9150;SDS011;4610;50.006;7.490;2022-12-04T00:53:39;17.23;;;7.10;;
9150;SDS011;4610;50.006;7.490;2022-12-04T00:56:07;21.37;;;8.30;;
9150;SDS011;4610;50.006;7.490;2022-12-04T00:58:35;23.13;;;9.33;;
9150;SDS011;4610;50.006;7.490;2022-12-04T01:01:03;10.40;;;6.03;;
9150;SDS011;4610;50.006;7.490;2022-12-04T01:03:32;18.73;;;5.63;;
9150;SDS011;4610;50.006;7.490;2022-12-04T01:05:59;18.40;;;7.20;;
9150;SDS011;4610;50.006;7.490;2022-12-04T01:08:26;19.93;;;7.83;;
9150;SDS011;4610;50.006;7.490;2022-12-04T01:10:54;12.00;;;6.53;;
9150;SDS011;4610;50.006;7.490;2022-12-04T01:13:21;9.63;;;5.20;;
9150;SDS011;4610;50.006;7.490;2022-12-04T01:15:49;18.87;;;7.23;;
9150;SDS011;4610;50.006;7.490;2022-12-04T01:18:16;15.80;;;6.83;;
9150;SDS011;4610;50.006;7.490;2022-12-04T01:20:47;17.73;;;6.40;;
9150;SDS011;4610;50.006;7.490;2022-12-04T01:23:15;16.73;;;7.07;;
9150;SDS011;4610;50.006;7.490;2022-12-04T01:25:48;15.97;;;6.83;;
9150;SDS011;4610;50.006;7.490;2022-12-04T01:28:17;18.40;;;6.77;;
9150;SDS011;4610;50.006;7.490;2022-12-04T01:30:44;14.57;;;6.03;;
9150;SDS011;4610;50.006;7.490;2022-12-04T01:33:20;6.57;;;3.80;;
9150;SDS011;4610;50.006;7.490;2022-12-04T01:35:50;15.53;;;6.23;;
9150;SDS011;4610;50.006;7.490;2022-12-04T01:38:18;15.93;;;6.73;;
9150;SDS011;4610;50.006;7.490;2022-12-04T01:40:45;14.40;;;6.47;;
9150;SDS011;4610;50.006;7.490;2022-12-04T01:43:12;16.37;;;6.20;;
9150;SDS011;4610;50.006;7.490;2022-12-04T01:45:42;13.03;;;6.33;;
9150;SDS011;4610;50.006;7.490;2022-12-04T01:48:18;18.40;;;7.80;;
9150;SDS011;4610;50.006;7.490;2022-12-04T01:50:48;17.57;;;7.50;;
9150;SDS011;4610;50.006;7.490;2022-12-04T01:53:19;17.70;;;6.70;;
9150;SDS011;4610;50.006;7.490;2022-12-04T01:55:46;17.90;;;7.00;;
9150;SDS011;4610;50.006;7.490;2022-12-04T01:58:14;19.53;;;6.70;;
9150;SDS011;4610;50.006;7.490;2022-12-04T02:00:45;15.33;;;6.63;;
9150;SDS011;4610;50.006;7.490;2022-12-04T02:03:14;16.13;;;6.67;;
9150;SDS011;4610;50.006;7.490;2022-12-04T02:05:40;16.03;;;7.30;;
9150;SDS011;4610;50.006;7.490;2022-12-04T02:08:07;15.20;;;6.27;;
9150;SDS011;4610;50.006;7.490;2022-12-04T02:10:37;15.57;;;6.73;;
9150;SDS011;4610;50.006;7.490;2022-12-04T02:13:13;16.33;;;6.30;;
9150;SDS011;4610;50.006;7.490;2022-12-04T02:15:48;14.03;;;5.73;;
9150;SDS011;4610;50.006;7.490;2022-12-04T02:18:25;19.63;;;7.57;;
9150;SDS011;4610;50.006;7.490;2022-12-04T02:21:01;17.47;;;7.30;;
9150;SDS011;4610;50.006;7.490;2022-12-04T02:26:29;12.87;;;5.80;;
9150;SDS011;4610;50.006;7.490;2022-12-04T02:29:06;17.83;;;7.20;;
9150;SDS011;4610;50.006;7.490;2022-12-04T02:31:37;12.10;;;6.43;;
9150;SDS011;4610;50.006;7.490;2022-12-04T02:34:11;15.97;;;6.67;;
9150;SDS011;4610;50.006;7.490;2022-12-04T02:36:44;12.93;;;6.47;;
9150;SDS011;4610;50.006;7.490;2022-12-04T02:39:23;14.10;;;7.10;;
9150;SDS011;4610;50.006;7.490;2022-12-04T02:41:56;18.57;;;7.50;;
9150;SDS011;4610;50.006;7.490;2022-12-04T02:44:30;17.20;;;6.97;;
9150;SDS011;4610;50.006;7.490;2022-12-04T02:47:01;19.47;;;7.70;;
9150;SDS011;4610;50.006;7.490;2022-12-04T02:49:30;20.00;;;7.93;;
9150;SDS011;4610;50.006;7.490;2022-12-04T02:52:01;16.07;;;7.83;;
9150;SDS011;4610;50.006;7.490;2022-12-04T02:54:33;12.60;;;5.53;;
9150;SDS011;4610;50.006;7.490;2022-12-04T02:57:03;14.57;;;6.80;;
9150;SDS011;4610;50.006;7.490;2022-12-04T02:59:34;17.93;;;7.20;;
9150;SDS011;4610;50.006;7.490;2022-12-04T03:02:06;13.77;;;5.03;;
9150;SDS011;4610;50.006;7.490;2022-12-04T03:04:40;16.47;;;7.03;;
9150;SDS011;4610;50.006;7.490;2022-12-04T03:07:15;18.77;;;7.83;;
9150;SDS011;4610;50.006;7.490;2022-12-04T03:09:46;16.07;;;7.80;;
9150;SDS011;4610;50.006;7.490;2022-12-04T03:12:18;15.23;;;6.93;;
9150;SDS011;4610;50.006;7.490;2022-12-04T03:14:50;17.33;;;7.07;;
9150;SDS011;4610;50.006;7.490;2022-12-04T03:17:21;17.67;;;7.50;;
9150;SDS011;4610;50.006;7.490;2022-12-04T03:19:53;16.20;;;7.53;;
9150;SDS011;4610;50.006;7.490;2022-12-04T03:22:23;16.53;;;7.23;;
9150;SDS011;4610;50.006;7.490;2022-12-04T03:24:52;12.40;;;5.90;;
9150;SDS011;4610;50.006;7.490;2022-12-04T03:27:22;22.40;;;7.87;;
9150;SDS011;4610;50.006;7.490;2022-12-04T03:29:56;16.23;;;7.37;;
9150;SDS011;4610;50.006;7.490;2022-12-04T03:32:29;17.20;;;6.93;;
9150;SDS011;4610;50.006;7.490;2022-12-04T03:35:00;18.90;;;7.67;;
9150;SDS011;4610;50.006;7.490;2022-12-04T03:37:31;17.43;;;6.80;;
9150;SDS011;4610;50.006;7.490;2022-12-04T03:40:05;14.90;;;6.97;;
9150;SDS011;4610;50.006;7.490;2022-12-04T03:42:38;18.37;;;8.30;;
9150;SDS011;4610;50.006;7.490;2022-12-04T03:45:13;17.43;;;7.13;;
9150;SDS011;4610;50.006;7.490;2022-12-04T03:47:47;17.80;;;7.70;;
9150;SDS011;4610;50.006;7.490;2022-12-04T03:50:22;21.60;;;8.43;;
9150;SDS011;4610;50.006;7.490;2022-12-04T03:52:58;14.60;;;7.47;;
9150;SDS011;4610;50.006;7.490;2022-12-04T03:55:30;20.60;;;7.53;;
9150;SDS011;4610;50.006;7.490;2022-12-04T03:58:01;15.60;;;6.73;;
9150;SDS011;4610;50.006;7.490;2022-12-04T04:00:34;19.30;;;8.53;;
9150;SDS011;4610;50.006;7.490;2022-12-04T04:03:05;18.87;;;8.63;;
9150;SDS011;4610;50.006;7.490;2022-12-04T04:05:36;15.47;;;7.57;;
9150;SDS011;4610;50.006;7.490;2022-12-04T04:08:06;18.00;;;7.97;;
9150;SDS011;4610;50.006;7.490;2022-12-04T04:10:51;16.07;;;8.07;;
9150;SDS011;4610;50.006;7.490;2022-12-04T04:13:21;17.90;;;7.20;;
9150;SDS011;4610;50.006;7.490;2022-12-04T04:16:10;11.03;;;6.17;;
9150;SDS011;4610;50.006;7.490;2022-12-04T04:18:59;16.53;;;7.17;;
9150;SDS011;4610;50.006;7.490;2022-12-04T04:21:44;14.70;;;6.43;;
9150;SDS011;4610;50.006;7.490;2022-12-04T04:24:37;19.50;;;7.23;;
9150;SDS011;4610;50.006;7.490;2022-12-04T04:27:07;19.20;;;7.40;;
9150;SDS011;4610;50.006;7.490;2022-12-04T04:29:34;18.70;;;7.33;;
9150;SDS011;4610;50.006;7.490;2022-12-04T04:32:05;17.60;;;7.07;;
9150;SDS011;4610;50.006;7.490;2022-12-04T04:34:38;18.63;;;7.63;;
9150;SDS011;4610;50.006;7.490;2022-12-04T04:37:14;18.33;;;8.40;;
9150;SDS011;4610;50.006;7.490;2022-12-04T04:39:51;15.37;;;7.23;;
9150;SDS011;4610;50.006;7.490;2022-12-04T04:42:23;17.20;;;7.87;;
9150;SDS011;4610;50.006;7.490;2022-12-04T04:44:55;17.43;;;7.73;;
9150;SDS011;4610;50.006;7.490;2022-12-04T04:47:29;16.97;;;6.93;;
9150;SDS011;4610;50.006;7.490;2022-12-04T04:50:00;18.00;;;6.60;;
9150;SDS011;4610;50.006;7.490;2022-12-04T04:52:30;13.67;;;6.27;;
9150;SDS011;4610;50.006;7.490;2022-12-04T04:54:58;14.60;;;6.47;;
9150;SDS011;4610;50.006;7.490;2022-12-04T04:57:27;11.73;;;6.07;;
9150;SDS011;4610;50.006;7.490;2022-12-04T04:59:55;14.37;;;6.60;;
9150;SDS011;4610;50.006;7.490;2022-12-04T05:02:22;13.20;;;5.53;;
9150;SDS011;4610;50.006;7.490;2022-12-04T05:04:52;17.17;;;7.00;;
9150;SDS011;4610;50.006;7.490;2022-12-04T05:07:19;16.50;;;7.10;;
9150;SDS011;4610;50.006;7.490;2022-12-04T05:09:46;17.77;;;7.87;;
9150;SDS011;4610;50.006;7.490;2022-12-04T05:12:12;14.03;;;5.70;;
9150;SDS011;4610;50.006;7.490;2022-12-04T05:14:39;18.00;;;5.93;;
9150;SDS011;4610;50.006;7.490;2022-12-04T05:17:06;15.73;;;7.50;;
9150;SDS011;4610;50.006;7.490;2022-12-04T05:19:34;17.80;;;6.20;;
9150;SDS011;4610;50.006;7.490;2022-12-04T05:22:22;18.53;;;7.83;;
9150;SDS011;4610;50.006;7.490;2022-12-04T05:24:52;17.53;;;7.40;;
9150;SDS011;4610;50.006;7.490;2022-12-04T05:27:19;18.17;;;7.03;;
9150;SDS011;4610;50.006;7.490;2022-12-04T05:29:47;21.03;;;6.87;;
9150;SDS011;4610;50.006;7.490;2022-12-04T05:32:16;11.00;;;6.13;;
9150;SDS011;4610;50.006;7.490;2022-12-04T05:34:43;16.67;;;6.90;;
9150;SDS011;4610;50.006;7.490;2022-12-04T05:37:12;18.33;;;6.93;;
9150;SDS011;4610;50.006;7.490;2022-12-04T05:39:40;12.87;;;6.17;;
9150;SDS011;4610;50.006;7.490;2022-12-04T05:42:07;13.73;;;6.87;;
9150;SDS011;4610;50.006;7.490;2022-12-04T05:44:33;16.43;;;6.40;;
9150;SDS011;4610;50.006;7.490;2022-12-04T05:47:00;17.47;;;6.47;;
9150;SDS011;4610;50.006;7.490;2022-12-04T05:49:27;13.37;;;6.83;;
9150;SDS011;4610;50.006;7.490;2022-12-04T05:51:55;15.13;;;6.13;;
9150;SDS011;4610;50.006;7.490;2022-12-04T05:54:22;18.17;;;7.23;;
9150;SDS011;4610;50.006;7.490;2022-12-04T05:56:51;15.60;;;7.20;;
9150;SDS011;4610;50.006;7.490;2022-12-04T05:59:18;15.07;;;7.00;;
9150;SDS011;4610;50.006;7.490;2022-12-04T06:01:45;13.10;;;6.93;;
9150;SDS011;4610;50.006;7.490;2022-12-04T06:04:12;22.17;;;8.70;;
9150;SDS011;4610;50.006;7.490;2022-12-04T06:06:39;21.67;;;9.40;;
9150;SDS011;4610;50.006;7.490;2022-12-04T06:09:06;22.83;;;8.70;;
9150;SDS011;4610;50.006;7.490;2022-12-04T06:11:34;18.10;;;7.17;;
9150;SDS011;4610;50.006;7.490;2022-12-04T06:14:04;12.90;;;6.80;;
9150;SDS011;4610;50.006;7.490;2022-12-04T06:16:33;15.90;;;7.73;;
9150;SDS011;4610;50.006;7.490;2022-12-04T06:19:02;18.93;;;8.20;;
9150;SDS011;4610;50.006;7.490;2022-12-04T06:21:31;18.07;;;7.73;;
9150;SDS011;4610;50.006;7.490;2022-12-04T06:23:59;17.77;;;8.03;;
9150;SDS011;4610;50.006;7.490;2022-12-04T06:26:26;19.73;;;7.20;;
9150;SDS011;4610;50.006;7.490;2022-12-04T06:28:54;15.37;;;7.93;;
9150;SDS011;4610;50.006;7.490;2022-12-04T06:31:23;15.50;;;6.90;;
9150;SDS011;4610;50.006;7.490;2022-12-04T06:33:51;16.90;;;7.67;;
9150;SDS011;4610;50.006;7.490;2022-12-04T06:36:19;16.53;;;7.53;;
9150;SDS011;4610;50.006;7.490;2022-12-04T06:38:49;16.83;;;6.90;;
9150;SDS011;4610;50.006;7.490;2022-12-04T06:41:19;15.27;;;6.57;;
9150;SDS011;4610;50.006;7.490;2022-12-04T06:43:46;14.03;;;6.87;;
9150;SDS011;4610;50.006;7.490;2022-12-04T06:46:15;14.67;;;7.13;;
9150;SDS011;4610;50.006;7.490;2022-12-04T06:48:45;18.10;;;7.43;;
9150;SDS011;4610;50.006;7.490;2022-12-04T06:51:13;17.70;;;7.50;;
9150;SDS011;4610;50.006;7.490;2022-12-04T06:53:42;17.50;;;8.60;;
9150;SDS011;4610;50.006;7.490;2022-12-04T06:56:11;20.07;;;8.33;;
9150;SDS011;4610;50.006;7.490;2022-12-04T06:58:41;12.97;;;6.23;;
9150;SDS011;4610;50.006;7.490;2022-12-04T07:01:09;20.73;;;8.10;;
9150;SDS011;4610;50.006;7.490;2022-12-04T07:03:38;17.27;;;8.10;;
9150;SDS011;4610;50.006;7.490;2022-12-04T07:06:11;16.90;;;6.97;;
9150;SDS011;4610;50.006;7.490;2022-12-04T07:08:39;21.27;;;9.37;;
9150;SDS011;4610;50.006;7.490;2022-12-04T07:11:06;18.23;;;7.90;;
9150;SDS011;4610;50.006;7.490;2022-12-04T07:13:33;16.10;;;6.93;;
9150;SDS011;4610;50.006;7.490;2022-12-04T07:16:00;20.10;;;8.07;;
9150;SDS011;4610;50.006;7.490;2022-12-04T07:18:27;17.87;;;8.33;;
9150;SDS011;4610;50.006;7.490;2022-12-04T07:20:54;14.07;;;6.53;;
9150;SDS011;4610;50.006;7.490;2022-12-04T07:23:23;14.67;;;6.53;;
9150;SDS011;4610;50.006;7.490;2022-12-04T07:25:49;14.10;;;6.93;;
9150;SDS011;4610;50.006;7.490;2022-12-04T07:28:16;19.40;;;7.50;;
9150;SDS011;4610;50.006;7.490;2022-12-04T07:30:45;16.73;;;7.20;;
9150;SDS011;4610;50.006;7.490;2022-12-04T07:33:12;21.17;;;9.07;;
9150;SDS011;4610;50.006;7.490;2022-12-04T07:35:39;17.07;;;7.23;;
9150;SDS011;4610;50.006;7.490;2022-12-04T07:38:06;18.90;;;7.57;;
9150;SDS011;4610;50.006;7.490;2022-12-04T07:40:34;15.00;;;7.60;;
9150;SDS011;4610;50.006;7.490;2022-12-04T07:43:02;16.97;;;7.00;;
9150;SDS011;4610;50.006;7.490;2022-12-04T07:45:31;16.47;;;6.90;;
9150;SDS011;4610;50.006;7.490;2022-12-04T07:47:58;16.17;;;7.97;;
9150;SDS011;4610;50.006;7.490;2022-12-04T07:50:25;18.07;;;8.20;;
9150;SDS011;4610;50.006;7.490;2022-12-04T07:52:52;14.17;;;6.83;;
9150;SDS011;4610;50.006;7.490;2022-12-04T07:55:18;14.03;;;6.97;;
9150;SDS011;4610;50.006;7.490;2022-12-04T07:57:47;17.90;;;8.23;;
9150;SDS011;4610;50.006;7.490;2022-12-04T08:00:14;19.07;;;8.53;;
9150;SDS011;4610;50.006;7.490;2022-12-04T08:02:41;19.00;;;7.70;;
9150;SDS011;4610;50.006;7.490;2022-12-04T08:05:08;15.60;;;7.43;;
9150;SDS011;4610;50.006;7.490;2022-12-04T08:07:35;16.53;;;6.17;;
9150;SDS011;4610;50.006;7.490;2022-12-04T08:10:02;15.07;;;6.30;;
9150;SDS011;4610;50.006;7.490;2022-12-04T08:12:30;16.73;;;6.67;;
9150;SDS011;4610;50.006;7.490;2022-12-04T08:14:58;13.87;;;6.60;;
9150;SDS011;4610;50.006;7.490;2022-12-04T08:17:25;15.93;;;6.90;;
9150;SDS011;4610;50.006;7.490;2022-12-04T08:19:52;19.57;;;7.03;;
9150;SDS011;4610;50.006;7.490;2022-12-04T08:22:19;13.37;;;6.77;;
9150;SDS011;4610;50.006;7.490;2022-12-04T08:24:46;13.80;;;6.17;;
9150;SDS011;4610;50.006;7.490;2022-12-04T08:27:12;16.60;;;6.53;;
9150;SDS011;4610;50.006;7.490;2022-12-04T08:29:39;14.37;;;6.20;;
9150;SDS011;4610;50.006;7.490;2022-12-04T08:32:07;13.87;;;5.97;;
9150;SDS011;4610;50.006;7.490;2022-12-04T08:34:34;13.27;;;5.50;;
9150;SDS011;4610;50.006;7.490;2022-12-04T08:37:01;13.13;;;5.70;;
9150;SDS011;4610;50.006;7.490;2022-12-04T08:39:28;12.33;;;5.70;;
9150;SDS011;4610;50.006;7.490;2022-12-04T08:41:55;14.87;;;5.23;;
9150;SDS011;4610;50.006;7.490;2022-12-04T08:44:21;17.13;;;6.53;;
9150;SDS011;4610;50.006;7.490;2022-12-04T08:46:48;13.17;;;5.90;;
9150;SDS011;4610;50.006;7.490;2022-12-04T08:49:17;15.37;;;5.93;;
9150;SDS011;4610;50.006;7.490;2022-12-04T08:51:44;11.93;;;5.43;;
9150;SDS011;4610;50.006;7.490;2022-12-04T08:54:11;14.43;;;6.80;;
9150;SDS011;4610;50.006;7.490;2022-12-04T08:56:39;14.53;;;6.17;;
9150;SDS011;4610;50.006;7.490;2022-12-04T08:59:08;12.23;;;6.23;;
9150;SDS011;4610;50.006;7.490;2022-12-04T09:01:36;16.37;;;7.20;;
9150;SDS011;4610;50.006;7.490;2022-12-04T09:04:03;14.53;;;5.87;;
9150;SDS011;4610;50.006;7.490;2022-12-04T09:06:32;12.43;;;5.30;;
9150;SDS011;4610;50.006;7.490;2022-12-04T09:09:01;27.90;;;8.80;;
9150;SDS011;4610;50.006;7.490;2022-12-04T09:11:28;14.37;;;6.43;;
9150;SDS011;4610;50.006;7.490;2022-12-04T09:13:56;14.47;;;5.83;;
9150;SDS011;4610;50.006;7.490;2022-12-04T09:16:24;13.40;;;5.80;;
9150;SDS011;4610;50.006;7.490;2022-12-04T09:18:51;16.33;;;7.33;;
9150;SDS011;4610;50.006;7.490;2022-12-04T09:21:19;15.77;;;6.70;;
9150;SDS011;4610;50.006;7.490;2022-12-04T09:23:48;12.07;;;6.43;;
9150;SDS011;4610;50.006;7.490;2022-12-04T09:26:18;21.70;;;8.40;;
9150;SDS011;4610;50.006;7.490;2022-12-04T09:28:47;20.13;;;7.73;;
9150;SDS011;4610;50.006;7.490;2022-12-04T09:31:14;22.83;;;8.57;;
9150;SDS011;4610;50.006;7.490;2022-12-04T09:33:42;22.00;;;8.70;;
9150;SDS011;4610;50.006;7.490;2022-12-04T09:36:09;19.70;;;8.30;;
9150;SDS011;4610;50.006;7.490;2022-12-04T09:38:40;24.87;;;9.87;;
9150;SDS011;4610;50.006;7.490;2022-12-04T09:41:11;20.57;;;8.37;;
9150;SDS011;4610;50.006;7.490;2022-12-04T09:43:49;20.43;;;8.27;;
9150;SDS011;4610;50.006;7.490;2022-12-04T09:46:22;19.67;;;8.13;;
9150;SDS011;4610;50.006;7.490;2022-12-04T09:48:55;21.03;;;8.70;;
9150;SDS011;4610;50.006;7.490;2022-12-04T09:51:23;20.50;;;8.83;;
9150;SDS011;4610;50.006;7.490;2022-12-04T09:53:53;17.50;;;8.53;;
9150;SDS011;4610;50.006;7.490;2022-12-04T09:56:24;20.27;;;8.40;;
9150;SDS011;4610;50.006;7.490;2022-12-04T09:58:56;19.43;;;8.80;;
9150;SDS011;4610;50.006;7.490;2022-12-04T10:01:30;23.47;;;8.77;;
9150;SDS011;4610;50.006;7.490;2022-12-04T10:04:02;20.83;;;7.43;;
9150;SDS011;4610;50.006;7.490;2022-12-04T10:06:30;19.37;;;7.23;;
9150;SDS011;4610;50.006;7.490;2022-12-04T10:09:06;18.97;;;7.77;;
9150;SDS011;4610;50.006;7.490;2022-12-04T10:11:43;18.23;;;7.73;;
9150;SDS011;4610;50.006;7.490;2022-12-04T10:14:19;21.80;;;8.03;;
9150;SDS011;4610;50.006;7.490;2022-12-04T10:20:02;17.27;;;7.43;;
9150;SDS011;4610;50.006;7.490;2022-12-04T10:22:45;19.17;;;7.97;;
9150;SDS011;4610;50.006;7.490;2022-12-04T10:25:21;19.03;;;7.63;;
9150;SDS011;4610;50.006;7.490;2022-12-04T10:27:52;20.00;;;7.33;;
9150;SDS011;4610;50.006;7.490;2022-12-04T10:30:23;21.90;;;8.03;;
9150;SDS011;4610;50.006;7.490;2022-12-04T10:32:54;18.33;;;7.60;;
9150;SDS011;4610;50.006;7.490;2022-12-04T10:35:26;20.57;;;7.97;;
9150;SDS011;4610;50.006;7.490;2022-12-04T10:37:54;17.10;;;7.93;;
9150;SDS011;4610;50.006;7.490;2022-12-04T10:40:26;21.07;;;7.67;;
9150;SDS011;4610;50.006;7.490;2022-12-04T10:42:59;15.50;;;7.00;;
9150;SDS011;4610;50.006;7.490;2022-12-04T10:45:30;17.97;;;8.40;;
9150;SDS011;4610;50.006;7.490;2022-12-04T10:47:57;18.37;;;5.90;;
9150;SDS011;4610;50.006;7.490;2022-12-04T10:50:25;29.03;;;11.40;;
9150;SDS011;4610;50.006;7.490;2022-12-04T10:52:52;25.57;;;9.10;;
9150;SDS011;4610;50.006;7.490;2022-12-04T10:55:29;17.03;;;7.33;;
9150;SDS011;4610;50.006;7.490;2022-12-04T10:57:56;18.10;;;7.67;;
9150;SDS011;4610;50.006;7.490;2022-12-04T11:00:28;18.50;;;8.33;;
9150;SDS011;4610;50.006;7.490;2022-12-04T11:02:57;19.27;;;7.30;;
9150;SDS011;4610;50.006;7.490;2022-12-04T11:05:27;19.57;;;8.40;;
9150;SDS011;4610;50.006;7.490;2022-12-04T11:07:56;17.03;;;7.43;;
9150;SDS011;4610;50.006;7.490;2022-12-04T11:10:27;20.60;;;7.73;;
9150;SDS011;4610;50.006;7.490;2022-12-04T11:13:00;17.20;;;7.63;;
9150;SDS011;4610;50.006;7.490;2022-12-04T11:15:29;17.73;;;7.53;;
9150;SDS011;4610;50.006;7.490;2022-12-04T11:18:05;19.63;;;8.00;;
9150;SDS011;4610;50.006;7.490;2022-12-04T11:20:33;20.33;;;8.43;;
9150;SDS011;4610;50.006;7.490;2022-12-04T11:23:00;18.93;;;8.00;;
9150;SDS011;4610;50.006;7.490;2022-12-04T11:25:29;18.70;;;9.00;;
9150;SDS011;4610;50.006;7.490;2022-12-04T11:28:03;16.10;;;7.67;;
9150;SDS011;4610;50.006;7.490;2022-12-04T11:30:31;31.67;;;16.67;;
9150;SDS011;4610;50.006;7.490;2022-12-04T11:33:01;28.37;;;15.37;;
9150;SDS011;4610;50.006;7.490;2022-12-04T11:35:32;20.63;;;12.43;;
9150;SDS011;4610;50.006;7.490;2022-12-04T11:38:00;18.70;;;8.40;;
9150;SDS011;4610;50.006;7.490;2022-12-04T11:40:31;18.70;;;8.27;;
9150;SDS011;4610;50.006;7.490;2022-12-04T11:43:01;18.90;;;7.63;;
9150;SDS011;4610;50.006;7.490;2022-12-04T11:45:31;19.27;;;8.13;;
9150;SDS011;4610;50.006;7.490;2022-12-04T11:47:59;19.93;;;8.17;;
9150;SDS011;4610;50.006;7.490;2022-12-04T11:50:32;19.77;;;8.40;;
9150;SDS011;4610;50.006;7.490;2022-12-04T11:53:12;20.60;;;7.13;;
9150;SDS011;4610;50.006;7.490;2022-12-04T11:58:56;19.70;;;7.70;;
9150;SDS011;4610;50.006;7.490;2022-12-04T12:01:40;24.27;;;8.83;;
9150;SDS011;4610;50.006;7.490;2022-12-04T12:07:09;16.63;;;7.20;;
9150;SDS011;4610;50.006;7.490;2022-12-04T12:09:46;20.83;;;7.83;;
9150;SDS011;4610;50.006;7.490;2022-12-04T12:12:21;16.83;;;7.63;;
9150;SDS011;4610;50.006;7.490;2022-12-04T12:14:59;20.60;;;7.17;;
9150;SDS011;4610;50.006;7.490;2022-12-04T12:17:35;17.27;;;6.93;;
9150;SDS011;4610;50.006;7.490;2022-12-04T12:20:12;19.80;;;7.50;;
9150;SDS011;4610;50.006;7.490;2022-12-04T12:22:48;23.73;;;7.90;;
9150;SDS011;4610;50.006;7.490;2022-12-04T12:25:28;18.50;;;7.63;;
9150;SDS011;4610;50.006;7.490;2022-12-04T12:28:11;19.00;;;8.07;;
9150;SDS011;4610;50.006;7.490;2022-12-04T12:30:52;18.03;;;7.73;;
9150;SDS011;4610;50.006;7.490;2022-12-04T12:33:31;48.13;;;11.90;;
9150;SDS011;4610;50.006;7.490;2022-12-04T12:36:02;50.33;;;11.37;;
9150;SDS011;4610;50.006;7.490;2022-12-04T12:38:34;54.23;;;13.03;;
9150;SDS011;4610;50.006;7.490;2022-12-04T12:41:09;66.93;;;14.77;;
9150;SDS011;4610;50.006;7.490;2022-12-04T12:43:38;67.87;;;15.13;;
9150;SDS011;4610;50.006;7.490;2022-12-04T12:46:08;50.50;;;14.60;;
9150;SDS011;4610;50.006;7.490;2022-12-04T12:48:42;55.03;;;15.03;;
9150;SDS011;4610;50.006;7.490;2022-12-04T12:51:19;68.77;;;15.03;;
9150;SDS011;4610;50.006;7.490;2022-12-04T12:53:57;57.47;;;13.23;;
9150;SDS011;4610;50.006;7.490;2022-12-04T12:56:30;44.17;;;11.13;;
9150;SDS011;4610;50.006;7.490;2022-12-04T12:59:03;74.97;;;15.13;;
9150;SDS011;4610;50.006;7.490;2022-12-04T13:01:39;57.50;;;13.27;;
9150;SDS011;4610;50.006;7.490;2022-12-04T13:04:13;60.43;;;14.43;;
9150;SDS011;4610;50.006;7.490;2022-12-04T13:06:47;63.60;;;13.73;;
9150;SDS011;4610;50.006;7.490;2022-12-04T13:09:19;66.77;;;15.30;;
9150;SDS011;4610;50.006;7.490;2022-12-04T13:11:51;50.30;;;11.73;;
9150;SDS011;4610;50.006;7.490;2022-12-04T13:14:23;54.27;;;13.50;;
9150;SDS011;4610;50.006;7.490;2022-12-04T13:16:53;55.13;;;13.10;;
9150;SDS011;4610;50.006;7.490;2022-12-04T13:19:25;64.30;;;13.77;;
9150;SDS011;4610;50.006;7.490;2022-12-04T13:21:58;48.40;;;12.83;;
9150;SDS011;4610;50.006;7.490;2022-12-04T13:24:38;59.53;;;13.20;;
9150;SDS011;4610;50.006;7.490;2022-12-04T13:27:27;68.63;;;15.43;;
9150;SDS011;4610;50.006;7.490;2022-12-04T13:30:04;55.40;;;13.07;;
9150;SDS011;4610;50.006;7.490;2022-12-04T13:32:49;65.73;;;14.27;;
9150;SDS011;4610;50.006;7.490;2022-12-04T13:35:33;66.40;;;14.53;;
9150;SDS011;4610;50.006;7.490;2022-12-04T13:38:15;50.20;;;12.20;;
9150;SDS011;4610;50.006;7.490;2022-12-04T13:40:51;56.47;;;13.27;;
9150;SDS011;4610;50.006;7.490;2022-12-04T13:46:03;53.50;;;13.03;;
9150;SDS011;4610;50.006;7.490;2022-12-04T13:48:35;66.67;;;14.57;;
9150;SDS011;4610;50.006;7.490;2022-12-04T13:51:05;57.80;;;13.43;;
9150;SDS011;4610;50.006;7.490;2022-12-04T13:53:47;55.00;;;12.87;;
9150;SDS011;4610;50.006;7.490;2022-12-04T13:56:25;58.00;;;13.30;;
9150;SDS011;4610;50.006;7.490;2022-12-04T13:58:58;70.40;;;14.80;;
9150;SDS011;4610;50.006;7.490;2022-12-04T14:01:27;70.20;;;16.43;;
9150;SDS011;4610;50.006;7.490;2022-12-04T14:04:01;58.13;;;12.83;;
9150;SDS011;4610;50.006;7.490;2022-12-04T14:06:30;60.23;;;14.10;;
9150;SDS011;4610;50.006;7.490;2022-12-04T14:09:03;57.90;;;13.63;;
9150;SDS011;4610;50.006;7.490;2022-12-04T14:11:38;73.10;;;16.17;;
9150;SDS011;4610;50.006;7.490;2022-12-04T14:14:14;72.37;;;15.07;;
9150;SDS011;4610;50.006;7.490;2022-12-04T14:16:49;68.50;;;14.70;;
9150;SDS011;4610;50.006;7.490;2022-12-04T14:19:26;63.63;;;14.20;;
9150;SDS011;4610;50.006;7.490;2022-12-04T14:21:56;47.47;;;11.83;;
9150;SDS011;4610;50.006;7.490;2022-12-04T14:24:31;63.60;;;16.30;;
9150;SDS011;4610;50.006;7.490;2022-12-04T14:27:27;66.13;;;16.90;;
9150;SDS011;4610;50.006;7.490;2022-12-04T14:29:59;49.23;;;12.47;;
9150;SDS011;4610;50.006;7.490;2022-12-04T14:32:28;64.30;;;15.00;;
9150;SDS011;4610;50.006;7.490;2022-12-04T14:35:00;56.67;;;14.77;;
9150;SDS011;4610;50.006;7.490;2022-12-04T14:37:29;57.67;;;14.63;;
9150;SDS011;4610;50.006;7.490;2022-12-04T14:39:59;51.07;;;13.23;;
9150;SDS011;4610;50.006;7.490;2022-12-04T14:42:30;46.27;;;11.67;;
9150;SDS011;4610;50.006;7.490;2022-12-04T14:45:03;44.70;;;10.50;;
9150;SDS011;4610;50.006;7.490;2022-12-04T14:47:34;50.40;;;12.03;;
9150;SDS011;4610;50.006;7.490;2022-12-04T14:50:18;42.87;;;10.13;;
9150;SDS011;4610;50.006;7.490;2022-12-04T14:52:53;55.07;;;12.73;;
9150;SDS011;4610;50.006;7.490;2022-12-04T14:55:30;53.10;;;13.20;;
9150;SDS011;4610;50.006;7.490;2022-12-04T14:58:03;52.67;;;12.97;;
9150;SDS011;4610;50.006;7.490;2022-12-04T15:00:53;37.83;;;10.43;;
9150;SDS011;4610;50.006;7.490;2022-12-04T15:03:22;44.30;;;11.77;;
9150;SDS011;4610;50.006;7.490;2022-12-04T15:05:51;79.97;;;15.87;;
9150;SDS011;4610;50.006;7.490;2022-12-04T15:08:28;54.37;;;12.57;;
9150;SDS011;4610;50.006;7.490;2022-12-04T15:10:55;67.83;;;14.17;;
9150;SDS011;4610;50.006;7.490;2022-12-04T15:13:39;53.37;;;12.93;;
9150;SDS011;4610;50.006;7.490;2022-12-04T15:16:07;57.30;;;13.30;;
9150;SDS011;4610;50.006;7.490;2022-12-04T15:18:35;65.30;;;15.03;;
9150;SDS011;4610;50.006;7.490;2022-12-04T15:21:04;59.10;;;14.00;;
9150;SDS011;4610;50.006;7.490;2022-12-04T15:23:34;43.73;;;11.63;;
9150;SDS011;4610;50.006;7.490;2022-12-04T15:26:03;41.87;;;11.17;;
9150;SDS011;4610;50.006;7.490;2022-12-04T15:28:33;52.13;;;13.47;;
9150;SDS011;4610;50.006;7.490;2022-12-04T15:31:18;44.13;;;10.93;;
9150;SDS011;4610;50.006;7.490;2022-12-04T15:33:48;50.40;;;13.63;;
9150;SDS011;4610;50.006;7.490;2022-12-04T15:36:19;53.70;;;13.77;;